Time;durP1;ratioP1;P1;durP2;ratioP2;P2;SDS_P1;SDS_P2;PMS_P1;PMS_P2;Temp;Humidity;BMP_temperature;BMP_pressure;BME280_temperature;BME280_humidity;BME280_pressure;Samples;Min_cycle;Max_cycle;Signal;HPM_P1;HPM_P2
2021/12/08 00:00:59;;;;;;;1.20;1.20;;;16.60;67.10;;;;;;5047036;28;43460;-69
2021/12/08 00:03:28;;;;;;;1.20;1.20;;;16.60;67.30;;;;;;5046332;28;44895;-70
2021/12/08 00:05:57;;;;;;;1.10;1.10;;;16.60;67.40;;;;;;5045757;28;44117;-70
2021/12/08 00:08:28;;;;;;;1.20;1.20;;;16.50;67.40;;;;;;5046394;28;43471;-70
2021/12/08 00:13:43;;;;;;;1.20;1.20;;;16.50;67.60;;;;;;5024154;28;43862;-68
2021/12/08 00:16:12;;;;;;;1.40;1.40;;;16.60;67.40;;;;;;5046311;28;44047;-69
2021/12/08 00:18:45;;;;;;;1.13;1.13;;;16.60;67.00;;;;;;5046274;28;43873;-69
2021/12/08 00:21:15;;;;;;;1.00;1.00;;;16.70;67.00;;;;;;5046760;28;43932;-70
2021/12/08 00:23:43;;;;;;;1.30;1.30;;;16.60;66.90;;;;;;5045769;28;43972;-69
2021/12/08 00:26:12;;;;;;;1.10;1.10;;;16.60;67.00;;;;;;5046061;28;43985;-69
2021/12/08 00:28:39;;;;;;;1.20;1.20;;;16.60;67.20;;;;;;5046201;28;43929;-69
2021/12/08 00:31:08;;;;;;;1.20;1.20;;;16.60;67.30;;;;;;5046564;28;43408;-69
2021/12/08 00:33:36;;;;;;;1.20;1.20;;;16.50;67.40;;;;;;5046104;28;43952;-70
2021/12/08 00:36:06;;;;;;;1.10;1.10;;;16.50;68.20;;;;;;5045737;28;44126;-70
2021/12/08 00:38:35;;;;;;;1.30;1.30;;;16.50;67.50;;;;;;5046826;28;43924;-70
2021/12/08 00:41:03;;;;;;;1.00;1.00;;;16.50;67.60;;;;;;5031582;28;43954;-69
2021/12/08 00:43:31;;;;;;;1.07;1.07;;;16.50;67.70;;;;;;5049121;28;43886;-69
2021/12/08 00:46:00;;;;;;;1.40;1.30;;;16.40;67.60;;;;;;5049384;28;43988;-69
2021/12/08 00:48:28;;;;;;;1.30;1.30;;;16.40;67.70;;;;;;5049775;28;43901;-69
2021/12/08 00:50:56;;;;;;;1.33;1.33;;;16.40;67.80;;;;;;5049776;28;43965;-70
2021/12/08 00:53:24;;;;;;;1.10;1.10;;;16.50;67.90;;;;;;5049110;28;43945;-70
2021/12/08 00:55:53;;;;;;;1.10;1.10;;;16.60;67.60;;;;;;5049226;28;44037;-69
2021/12/08 00:58:21;;;;;;;1.30;1.30;;;16.70;67.20;;;;;;5049165;28;43877;-70
2021/12/08 01:00:50;;;;;;;1.27;1.27;;;16.90;66.80;;;;;;5049676;28;43960;-70
2021/12/08 01:03:18;;;;;;;1.10;1.10;;;16.90;66.40;;;;;;5048963;28;43556;-69
2021/12/08 01:05:48;;;;;;;1.30;1.27;;;16.90;66.30;;;;;;5048693;28;43900;-69
2021/12/08 01:08:16;;;;;;;1.20;1.20;;;16.90;66.40;;;;;;5049331;28;43913;-69
2021/12/08 01:10:45;;;;;;;1.30;1.30;;;16.80;66.60;;;;;;5049448;28;44059;-70
2021/12/08 01:13:14;;;;;;;1.20;1.20;;;16.70;66.70;;;;;;5030466;28;47397;-69
2021/12/08 01:15:45;;;;;;;1.10;1.10;;;16.70;66.90;;;;;;5030747;28;45228;-69
2021/12/08 01:18:13;;;;;;;1.10;1.10;;;16.60;67.00;;;;;;5049079;28;43394;-70
2021/12/08 01:20:41;;;;;;;0.90;0.90;;;16.60;67.20;;;;;;5049221;28;44128;-69
2021/12/08 01:23:11;;;;;;;1.10;1.10;;;16.60;67.30;;;;;;5048771;28;43893;-70
2021/12/08 01:25:39;;;;;;;1.20;1.20;;;16.50;67.30;;;;;;5048666;28;43917;-70
2021/12/08 01:28:07;;;;;;;1.33;1.30;;;16.50;67.40;;;;;;5030670;28;44046;-69
2021/12/08 01:30:37;;;;;;;1.27;1.27;;;16.50;67.50;;;;;;5049143;28;43818;-69
2021/12/08 01:33:04;;;;;;;1.10;1.10;;;16.50;67.60;;;;;;5048572;28;43607;-69
2021/12/08 01:35:32;;;;;;;1.00;1.00;;;16.60;67.40;;;;;;5048635;28;43886;-69
2021/12/08 01:38:00;;;;;;;1.20;1.20;;;16.70;67.10;;;;;;5048776;28;43775;-70
2021/12/08 01:40:28;;;;;;;0.93;0.93;;;16.70;67.00;;;;;;5049411;28;44171;-69
2021/12/08 01:42:58;;;;;;;1.07;1.07;;;16.70;67.00;;;;;;5048504;28;44009;-70
2021/12/08 01:48:15;;;;;;;1.13;1.13;;;16.60;67.30;;;;;;5048741;28;43414;-70
2021/12/08 01:50:46;;;;;;;0.93;0.93;;;16.60;67.40;;;;;;5048347;28;43964;-70
2021/12/08 01:53:14;;;;;;;0.97;0.97;;;16.50;67.50;;;;;;5048206;28;44984;-70
2021/12/08 01:55:42;;;;;;;1.20;1.20;;;16.50;67.60;;;;;;5048305;28;44003;-68
2021/12/08 01:58:10;;;;;;;1.00;1.00;;;16.50;67.70;;;;;;5048333;28;43828;-70
2021/12/08 02:00:39;;;;;;;1.03;1.03;;;16.40;67.70;;;;;;5048603;28;44024;-70
2021/12/08 02:03:07;;;;;;;1.27;1.27;;;16.40;68.50;;;;;;5047525;28;44175;-69
2021/12/08 02:05:37;;;;;;;1.07;1.07;;;16.40;67.80;;;;;;5029130;28;44852;-69
2021/12/08 02:08:05;;;;;;;1.10;1.10;;;16.40;67.80;;;;;;5048288;28;43892;-69
2021/12/08 02:10:33;;;;;;;1.10;1.10;;;16.40;68.00;;;;;;5048608;28;44231;-69
2021/12/08 02:13:01;;;;;;;1.00;1.00;;;16.50;67.90;;;;;;5048109;28;43986;-69
2021/12/08 02:15:29;;;;;;;0.83;0.83;;;16.60;67.60;;;;;;5048011;28;44096;-70
2021/12/08 02:17:57;;;;;;;1.10;1.10;;;16.70;67.20;;;;;;5047833;28;44016;-69
2021/12/08 02:20:27;;;;;;;1.00;1.00;;;16.80;66.70;;;;;;5030546;28;44191;-70
2021/12/08 02:22:56;;;;;;;1.00;1.00;;;16.90;66.40;;;;;;5047801;28;44018;-70
2021/12/08 02:25:25;;;;;;;0.93;0.93;;;16.90;66.50;;;;;;5047681;28;43412;-69
2021/12/08 02:27:54;;;;;;;1.10;1.10;;;16.80;66.60;;;;;;5047707;28;43816;-70
2021/12/08 02:30:29;;;;;;;0.83;0.83;;;16.80;66.80;;;;;;5030007;28;43555;-69
2021/12/08 02:47:03;;;;;;;1.20;1.20;;;16.50;67.50;;;;;;5047583;28;43893;-69
2021/12/08 02:49:31;;;;;;;1.00;1.00;;;16.50;67.60;;;;;;5047939;28;44237;-69
2021/12/08 02:51:59;;;;;;;1.00;1.00;;;16.50;67.80;;;;;;5048212;28;44274;-69
2021/12/08 02:54:33;;;;;;;1.20;1.20;;;16.60;67.70;;;;;;5029024;28;45967;-68
2021/12/08 02:57:01;;;;;;;0.90;0.90;;;16.70;67.20;;;;;;5047544;28;44004;-69
2021/12/08 02:59:29;;;;;;;0.90;0.90;;;16.80;66.90;;;;;;5047464;28;44016;-69
2021/12/08 03:01:57;;;;;;;1.10;1.10;;;16.80;66.70;;;;;;5046703;28;43841;-69
2021/12/08 03:04:25;;;;;;;1.10;1.10;;;16.80;66.70;;;;;;5046431;28;43987;-69
2021/12/08 03:06:53;;;;;;;1.00;1.00;;;16.70;66.80;;;;;;5047143;28;43400;-69
2021/12/08 03:09:21;;;;;;;1.13;1.13;;;16.70;67.00;;;;;;5047213;28;43842;-69
2021/12/08 03:11:50;;;;;;;1.00;1.00;;;16.60;67.20;;;;;;5047568;28;43986;-69
2021/12/08 03:14:18;;;;;;;0.97;0.97;;;16.60;67.40;;;;;;5046851;28;44808;-69
2021/12/08 03:16:49;;;;;;;0.90;0.90;;;16.50;67.40;;;;;;5046916;28;43938;-69
2021/12/08 03:19:17;;;;;;;1.10;1.10;;;16.50;67.50;;;;;;5040826;28;44004;-70
2021/12/08 03:21:45;;;;;;;1.10;1.10;;;16.50;67.70;;;;;;5040929;28;43564;-70
2021/12/08 03:24:24;;;;;;;0.90;0.90;;;16.50;67.80;;;;;;5040322;28;43906;-69
2021/12/08 03:27:04;;;;;;;0.97;0.97;;;16.40;67.70;;;;;;5042039;28;44117;-70
2021/12/08 03:29:37;;;;;;;1.10;1.10;;;16.40;67.90;;;;;;5029144;28;44008;-69
2021/12/08 03:32:09;;;;;;;0.80;0.80;;;16.40;68.00;;;;;;5047590;28;43459;-70
2021/12/08 03:34:40;;;;;;;1.00;1.00;;;16.50;67.70;;;;;;5046799;28;44023;-70
2021/12/08 03:37:09;;;;;;;0.80;0.80;;;16.60;67.40;;;;;;5046957;28;43951;-68
2021/12/08 03:39:37;;;;;;;1.00;1.00;;;16.60;67.40;;;;;;5046713;28;43979;-69
2021/12/08 03:42:06;;;;;;;1.20;1.20;;;16.60;67.40;;;;;;5047159;28;43949;-69
2021/12/08 03:44:34;;;;;;;0.93;0.93;;;16.60;67.50;;;;;;5046355;28;45090;-69
2021/12/08 03:47:03;;;;;;;0.90;0.90;;;16.50;67.50;;;;;;5046805;28;44061;-69
2021/12/08 03:49:32;;;;;;;0.90;0.90;;;16.50;67.60;;;;;;5028786;28;44096;-70
2021/12/08 03:52:00;;;;;;;0.83;0.83;;;16.50;67.80;;;;;;5047184;28;43941;-70
2021/12/08 03:54:28;;;;;;;0.80;0.80;;;16.40;67.70;;;;;;5046361;28;43958;-70
2021/12/08 03:56:56;;;;;;;0.90;0.90;;;16.40;67.80;;;;;;5046362;28;43999;-69
2021/12/08 03:59:25;;;;;;;1.00;1.00;;;16.40;67.90;;;;;;5046556;28;44087;-69
2021/12/08 04:01:53;;;;;;;1.00;1.00;;;16.40;67.90;;;;;;5046802;28;43973;-69
2021/12/08 04:04:26;;;;;;;0.90;0.90;;;16.40;67.90;;;;;;5027197;28;45383;-70
2021/12/08 04:06:55;;;;;;;0.90;0.90;;;16.40;67.90;;;;;;5046404;28;43954;-69
2021/12/08 04:09:29;;;;;;;1.00;1.00;;;16.40;68.00;;;;;;5024916;28;44078;-69
2021/12/08 04:11:57;;;;;;;1.07;1.07;;;16.50;68.00;;;;;;5041251;28;43894;-69
2021/12/08 04:14:28;;;;;;;0.77;0.77;;;16.60;67.70;;;;;;5027610;28;46135;-69
2021/12/08 04:16:58;;;;;;;0.90;0.90;;;16.70;67.20;;;;;;5046352;28;43878;-69
2021/12/08 04:19:26;;;;;;;0.80;0.80;;;16.90;66.80;;;;;;5046166;28;43870;-70
2021/12/08 04:21:55;;;;;;;0.87;0.87;;;16.90;66.40;;;;;;5046581;28;43931;-69
2021/12/08 04:24:25;;;;;;;0.80;0.80;;;16.90;67.10;;;;;;5028147;28;45624;-69
2021/12/08 04:26:56;;;;;;;0.80;0.80;;;16.90;66.50;;;;;;5045979;28;44115;-69
2021/12/08 04:29:26;;;;;;;0.73;0.73;;;16.80;66.60;;;;;;5046258;28;44028;-70
2021/12/08 04:31:56;;;;;;;0.77;0.77;;;16.80;66.90;;;;;;5046403;28;43388;-69
2021/12/08 04:34:29;;;;;;;0.90;0.90;;;16.70;67.00;;;;;;5045774;28;44148;-69
2021/12/08 04:37:00;;;;;;;0.80;0.80;;;16.60;67.10;;;;;;5046096;28;43936;-69
2021/12/08 04:39:36;;;;;;;0.80;0.80;;;16.60;67.30;;;;;;5046124;28;43940;-69
2021/12/08 04:42:09;;;;;;;0.83;0.83;;;16.60;67.40;;;;;;5046566;28;43965;-70
2021/12/08 04:44:43;;;;;;;0.87;0.87;;;16.50;67.50;;;;;;5045990;28;43961;-70
2021/12/08 04:53:10;;;;;;;1.00;1.00;;;16.50;67.80;;;;;;5039726;28;44280;-69
2021/12/08 05:01:25;;;;;;;1.40;1.30;;;16.60;67.10;;;;;;5039600;28;44043;-69
2021/12/08 05:04:13;;;;;;;1.33;1.23;;;16.60;67.30;;;;;;5041579;28;43956;-69
2021/12/08 05:06:48;;;;;;;1.40;1.40;;;16.60;67.60;;;;;;5045355;28;44083;-69
2021/12/08 05:09:18;;;;;;;1.33;1.20;;;16.50;67.60;;;;;;5045790;28;43431;-69
2021/12/08 05:11:49;;;;;;;2.40;1.67;;;16.50;68.50;;;;;;5045577;28;44055;-70
2021/12/08 05:14:19;;;;;;;1.47;1.47;;;16.50;67.90;;;;;;5018035;28;43421;-70
2021/12/08 05:16:48;;;;;;;2.53;1.70;;;16.40;67.90;;;;;;5038827;28;43946;-70
2021/12/08 05:19:18;;;;;;;1.20;1.20;;;16.40;68.70;;;;;;5039192;28;43956;-69
2021/12/08 05:21:48;;;;;;;1.50;1.40;;;16.40;68.00;;;;;;5045634;28;43967;-69
2021/12/08 05:24:19;;;;;;;1.77;1.47;;;16.40;68.00;;;;;;5045763;28;43923;-70
2021/12/08 05:26:48;;;;;;;1.63;1.40;;;16.40;68.00;;;;;;5048028;28;43917;-69
2021/12/08 05:29:19;;;;;;;1.40;1.30;;;16.40;68.10;;;;;;5030571;28;46380;-69
2021/12/08 05:31:47;;;;;;;1.50;1.40;;;16.40;68.00;;;;;;5049021;28;43997;-69
2021/12/08 05:34:15;;;;;;;1.67;1.57;;;16.60;67.80;;;;;;5030863;28;44027;-69
2021/12/08 05:36:44;;;;;;;1.50;1.27;;;16.70;67.30;;;;;;5048570;28;43727;-69
2021/12/08 05:39:20;;;;;;;1.40;1.40;;;16.80;66.80;;;;;;5048602;28;44033;-69
2021/12/08 05:41:49;;;;;;;1.70;1.60;;;16.90;66.50;;;;;;5048910;28;44093;-69
2021/12/08 05:44:17;;;;;;;1.70;1.60;;;16.90;66.40;;;;;;5048995;28;44049;-70
2021/12/08 05:46:47;;;;;;;1.37;1.37;;;16.80;66.40;;;;;;5030109;28;46585;-70
2021/12/08 05:49:16;;;;;;;1.53;1.47;;;16.80;66.70;;;;;;5048320;28;44062;-69
2021/12/08 05:51:46;;;;;;;1.67;1.50;;;16.70;66.80;;;;;;5048320;28;43970;-70
2021/12/08 05:54:16;;;;;;;1.60;1.50;;;16.60;67.00;;;;;;5048705;28;44025;-71
2021/12/08 05:56:44;;;;;;;1.60;1.50;;;16.60;67.20;;;;;;5047923;28;43997;-69
2021/12/08 05:59:12;;;;;;;1.23;1.23;;;16.60;67.40;;;;;;5048109;28;44250;-70
2021/12/08 06:01:42;;;;;;;1.40;1.40;;;16.50;67.50;;;;;;5048242;28;44010;-70
2021/12/08 06:04:11;;;;;;;1.70;1.60;;;16.50;67.60;;;;;;5048263;28;43953;-68
2021/12/08 06:06:39;;;;;;;1.67;1.40;;;16.50;67.80;;;;;;5047915;28;44012;-70
2021/12/08 06:09:09;;;;;;;1.80;1.70;;;16.40;67.80;;;;;;5048030;28;43999;-69
2021/12/08 06:11:37;;;;;;;3.33;1.33;;;16.50;67.90;;;;;;5048300;28;43818;-69
2021/12/08 06:14:07;;;;;;;1.47;1.47;;;16.60;67.70;;;;;;5048398;28;44183;-70
2021/12/08 06:16:36;;;;;;;1.13;1.13;;;16.60;67.30;;;;;;5047696;28;43929;-70
2021/12/08 06:19:05;;;;;;;1.50;1.40;;;16.60;67.20;;;;;;5047699;28;43932;-70
2021/12/08 06:21:33;;;;;;;1.53;1.53;;;16.60;67.30;;;;;;5048346;28;43934;-70
2021/12/08 06:24:01;;;;;;;1.53;1.53;;;16.60;67.40;;;;;;5048673;28;44178;-70
2021/12/08 06:26:30;;;;;;;1.40;1.40;;;16.50;67.50;;;;;;5047872;28;43969;-69
2021/12/08 06:28:59;;;;;;;1.57;1.47;;;16.50;67.90;;;;;;5047796;28;44115;-69
2021/12/08 06:31:28;;;;;;;1.80;1.70;;;16.50;67.80;;;;;;5029707;28;43794;-69
2021/12/08 06:33:56;;;;;;;1.50;1.40;;;16.50;68.60;;;;;;5047976;28;43925;-69
2021/12/08 06:36:26;;;;;;;1.83;1.73;;;16.40;67.90;;;;;;5047354;28;43914;-70
2021/12/08 06:38:54;;;;;;;1.63;1.60;;;16.40;67.90;;;;;;5047476;28;44001;-69
2021/12/08 06:41:23;;;;;;;1.40;1.40;;;16.40;68.00;;;;;;5047632;28;43948;-69
2021/12/08 06:43:54;;;;;;;1.50;1.40;;;16.40;68.00;;;;;;5047846;28;44313;-69
2021/12/08 06:46:22;;;;;;;1.60;1.50;;;16.40;68.00;;;;;;5041227;28;44023;-69
2021/12/08 06:48:52;;;;;;;1.67;1.60;;;16.40;68.20;;;;;;5009889;28;43449;-70
2021/12/08 06:51:22;;;;;;;1.30;1.30;;;16.40;68.20;;;;;;5041334;28;43949;-69
2021/12/08 06:53:52;;;;;;;1.50;1.50;;;16.50;67.90;;;;;;5048056;28;43940;-70
2021/12/08 06:56:21;;;;;;;1.60;1.40;;;16.70;67.60;;;;;;5046854;28;44013;-70
2021/12/08 06:58:51;;;;;;;1.60;1.50;;;16.80;67.10;;;;;;5047187;28;43846;-70
2021/12/08 07:01:33;;;;;;;1.27;1.27;;;16.80;66.70;;;;;;5047094;28;43991;-70
2021/12/08 07:04:11;;;;;;;1.60;1.50;;;16.80;66.60;;;;;;5047478;28;43890;-69
2021/12/08 07:06:58;;;;;;;1.57;1.50;;;16.80;66.90;;;;;;5028886;28;45411;-69
2021/12/08 07:09:29;;;;;;;1.33;1.30;;;16.70;67.00;;;;;;5047290;28;43992;-69
2021/12/08 07:11:58;;;;;;;1.80;1.70;;;16.60;67.20;;;;;;5047342;28;43915;-69
2021/12/08 07:14:28;;;;;;;1.70;1.60;;;16.60;67.40;;;;;;5047532;28;43949;-70
2021/12/08 07:16:58;;;;;;;1.40;1.30;;;16.60;67.60;;;;;;5046750;28;44043;-70
2021/12/08 07:19:34;;;;;;;1.73;1.63;;;16.50;67.60;;;;;;5047049;28;43976;-70
2021/12/08 07:22:04;;;;;;;1.37;1.37;;;16.50;67.80;;;;;;5047490;28;43418;-69
2021/12/08 07:24:33;;;;;;;1.60;1.50;;;16.50;67.90;;;;;;5047686;28;43614;-70
2021/12/08 07:27:04;;;;;;;1.13;1.13;;;16.50;67.90;;;;;;5046818;28;43977;-69
2021/12/08 07:29:34;;;;;;;1.30;1.20;;;16.40;68.00;;;;;;5047110;28;43969;-69
2021/12/08 07:32:06;;;;;;;1.37;1.37;;;16.50;68.00;;;;;;5046764;28;43979;-70
2021/12/08 07:34:35;;;;;;;1.50;1.50;;;16.60;67.70;;;;;;5047089;28;43918;-70
2021/12/08 07:37:05;;;;;;;1.40;1.40;;;16.60;67.40;;;;;;5046382;28;43927;-70
2021/12/08 07:39:44;;;;;;;1.30;1.30;;;16.60;67.20;;;;;;5046450;28;43905;-69
2021/12/08 07:42:17;;;;;;;1.20;1.20;;;16.60;67.40;;;;;;5046583;28;44061;-69
2021/12/08 07:44:47;;;;;;;1.33;1.33;;;16.60;67.50;;;;;;5026045;28;44156;-69
2021/12/08 07:47:16;;;;;;;1.27;1.27;;;16.60;67.60;;;;;;5045935;28;45118;-70
2021/12/08 07:49:46;;;;;;;1.30;1.30;;;16.50;67.60;;;;;;5045458;28;44045;-69
2021/12/08 07:52:15;;;;;;;1.33;1.33;;;16.50;67.80;;;;;;5046197;28;43984;-69
2021/12/08 07:54:44;;;;;;;1.40;1.40;;;16.50;67.90;;;;;;5028569;28;43985;-69
2021/12/08 07:57:14;;;;;;;1.43;1.40;;;16.40;67.80;;;;;;5045897;28;44077;-69
2021/12/08 07:59:43;;;;;;;1.40;1.40;;;16.40;67.90;;;;;;5045837;28;43901;-70
2021/12/08 08:02:11;;;;;;;1.37;1.37;;;16.40;68.00;;;;;;5046241;28;43396;-69
2021/12/08 08:04:42;;;;;;;1.50;1.40;;;16.40;68.00;;;;;;5027660;28;44072;-69
2021/12/08 08:07:10;;;;;;;1.13;1.13;;;16.40;68.10;;;;;;5027951;28;45686;-69
2021/12/08 08:09:40;;;;;;;1.40;1.40;;;16.40;68.20;;;;;;5045972;28;44134;-70
2021/12/08 08:12:10;;;;;;;1.30;1.30;;;16.40;68.10;;;;;;5045986;28;43977;-69
2021/12/08 08:14:41;;;;;;;1.40;1.30;;;16.60;68.00;;;;;;5046499;28;44000;-69
2021/12/08 08:17:11;;;;;;;1.63;1.53;;;16.70;67.50;;;;;;5045847;28;44948;-69
2021/12/08 08:19:44;;;;;;;1.40;1.40;;;16.80;67.00;;;;;;5045796;28;44052;-70
2021/12/08 08:22:14;;;;;;;1.30;1.30;;;16.90;66.70;;;;;;5046047;28;44016;-69
2021/12/08 08:24:43;;;;;;;1.27;1.27;;;16.80;66.60;;;;;;5046240;28;43559;-70
2021/12/08 08:27:11;;;;;;;1.37;1.37;;;16.80;66.80;;;;;;5045504;28;43814;-70
2021/12/08 08:29:39;;;;;;;1.40;1.40;;;16.70;67.00;;;;;;5045611;28;43561;-69
2021/12/08 08:32:11;;;;;;;1.33;1.33;;;16.70;67.20;;;;;;5045732;28;44056;-69
2021/12/08 08:34:43;;;;;;;1.33;1.33;;;16.60;67.40;;;;;;5027987;28;43969;-69
2021/12/08 08:37:12;;;;;;;1.47;1.37;;;16.60;67.60;;;;;;5045688;28;44234;-69
2021/12/08 08:39:42;;;;;;;1.53;1.43;;;16.50;67.60;;;;;;5045464;28;43924;-70
2021/12/08 08:42:13;;;;;;;1.10;1.10;;;16.50;68.50;;;;;;5045426;28;44040;-70
2021/12/08 08:44:43;;;;;;;1.23;1.20;;;16.50;67.90;;;;;;5039797;28;43945;-70
2021/12/08 08:47:12;;;;;;;1.10;1.10;;;16.50;67.90;;;;;;5038982;28;44033;-69
2021/12/08 08:49:42;;;;;;;1.40;1.40;;;16.40;68.00;;;;;;5039258;28;43916;-70
2021/12/08 08:52:12;;;;;;;2.30;1.37;;;16.50;67.90;;;;;;5045437;28;44041;-70
2021/12/08 08:54:46;;;;;;;1.33;1.33;;;16.60;67.60;;;;;;5046095;28;43894;-69
2021/12/08 08:57:17;;;;;;;1.17;1.17;;;16.70;67.40;;;;;;5045311;28;43949;-69
2021/12/08 08:59:46;;;;;;;1.30;1.30;;;16.60;67.30;;;;;;5045534;28;43410;-70
2021/12/08 09:02:17;;;;;;;1.20;1.20;;;16.60;67.40;;;;;;5030631;28;44075;-70
2021/12/08 09:04:48;;;;;;;1.20;1.20;;;16.60;67.50;;;;;;5048832;28;43951;-69
2021/12/08 09:07:21;;;;;;;1.53;1.53;;;16.50;67.50;;;;;;5048873;28;43985;-69
2021/12/08 09:09:49;;;;;;;1.20;1.20;;;16.50;67.70;;;;;;5048971;28;44139;-70
2021/12/08 09:12:24;;;;;;;1.10;1.10;;;16.50;67.80;;;;;;5048702;28;43368;-69
2021/12/08 09:14:54;;;;;;;1.20;1.20;;;16.50;67.90;;;;;;5049552;28;44003;-69
2021/12/08 09:17:25;;;;;;;1.33;1.30;;;16.40;67.90;;;;;;5048751;28;44064;-69
2021/12/08 09:19:59;;;;;;;1.23;1.23;;;16.40;68.00;;;;;;5048771;28;43966;-69
2021/12/08 09:22:30;;;;;;;1.30;1.30;;;16.40;68.00;;;;;;5048718;28;44001;-69
2021/12/08 09:25:00;;;;;;;1.27;1.27;;;16.40;68.10;;;;;;5049185;28;44007;-69
2021/12/08 09:27:30;;;;;;;1.30;1.23;;;16.40;68.20;;;;;;5048667;28;44472;-70
2021/12/08 09:29:59;;;;;;;1.40;1.40;;;16.40;68.30;;;;;;5048306;28;43924;-69
2021/12/08 09:32:33;;;;;;;1.10;1.10;;;16.50;68.20;;;;;;5048076;28;43970;-70
2021/12/08 09:35:06;;;;;;;1.27;1.27;;;16.60;67.80;;;;;;5029989;28;43666;-70
2021/12/08 09:37:35;;;;;;;1.10;1.10;;;16.70;67.40;;;;;;5047216;28;43960;-69
2021/12/08 09:40:06;;;;;;;1.37;1.27;;;16.80;67.00;;;;;;5029370;28;46373;-69
2021/12/08 09:42:36;;;;;;;1.17;1.13;;;16.80;66.80;;;;;;5047691;28;43909;-70
2021/12/08 09:45:07;;;;;;;0.90;0.90;;;16.80;66.90;;;;;;5048250;28;43448;-70
2021/12/08 09:47:35;;;;;;;1.10;1.10;;;16.70;67.10;;;;;;5048186;28;44986;-69
2021/12/08 09:50:06;;;;;;;1.50;1.40;;;16.70;67.30;;;;;;5048398;28;43893;-69
2021/12/08 09:52:34;;;;;;;1.30;1.30;;;16.60;67.40;;;;;;5048456;28;43395;-69
2021/12/08 09:55:02;;;;;;;1.40;1.40;;;16.60;67.60;;;;;;5048806;28;43893;-69
2021/12/08 09:57:30;;;;;;;1.10;1.10;;;16.50;67.70;;;;;;5029927;28;45522;-69
2021/12/08 09:59:58;;;;;;;1.40;1.40;;;16.50;67.80;;;;;;5048106;28;44057;-69
2021/12/08 10:02:31;;;;;;;1.30;1.30;;;16.50;67.90;;;;;;5029770;28;44005;-69
2021/12/08 10:05:00;;;;;;;1.20;1.20;;;16.50;68.10;;;;;;5048200;28;43924;-70
2021/12/08 10:07:30;;;;;;;1.10;1.10;;;16.50;68.10;;;;;;5047678;28;45160;-70
2021/12/08 10:09:57;;;;;;;1.17;1.17;;;16.40;68.20;;;;;;5047769;28;44016;-70
2021/12/08 10:12:25;;;;;;;1.40;1.40;;;16.50;68.10;;;;;;5047284;28;43934;-69
2021/12/08 10:14:53;;;;;;;1.60;1.50;;;16.60;67.70;;;;;;5048230;28;43385;-69
2021/12/08 10:17:21;;;;;;;1.20;1.20;;;16.60;67.40;;;;;;5047532;28;44789;-69
2021/12/08 10:20:06;;;;;;;1.07;1.07;;;16.60;67.40;;;;;;5047536;28;44056;-70
2021/12/08 10:22:36;;;;;;;1.13;1.13;;;16.60;67.50;;;;;;5047906;28;43371;-69
2021/12/08 10:25:06;;;;;;;1.03;1.03;;;16.60;67.60;;;;;;5048019;28;43593;-70
2021/12/08 10:28:05;;;;;;;1.20;1.20;;;16.60;67.80;;;;;;5028786;28;45661;-69
2021/12/08 10:30:35;;;;;;;1.20;1.20;;;16.50;67.90;;;;;;5048295;28;43767;-69
2021/12/08 10:33:10;;;;;;;1.13;1.13;;;16.50;68.00;;;;;;5047281;28;43960;-71
2021/12/08 10:35:45;;;;;;;1.10;1.10;;;16.50;68.10;;;;;;5009977;28;43783;-70
2021/12/08 10:38:16;;;;;;;1.33;1.30;;;16.40;68.00;;;;;;5042033;28;44049;-69
2021/12/08 10:40:58;;;;;;;1.10;1.10;;;16.40;68.10;;;;;;5029046;28;45153;-69
2021/12/08 10:43:26;;;;;;;1.00;1.00;;;16.40;68.20;;;;;;5047500;28;44003;-69
2021/12/08 10:46:04;;;;;;;1.20;1.20;;;16.40;68.30;;;;;;5047736;28;43953;-69
2021/12/08 10:48:37;;;;;;;1.10;1.10;;;16.30;68.30;;;;;;5047337;28;44017;-69
2021/12/08 10:54:27;;;;;;;1.10;1.10;;;16.50;68.20;;;;;;5042217;28;44057;-69
2021/12/08 10:56:57;;;;;;;1.00;1.00;;;16.60;67.70;;;;;;5047764;28;43967;-69
2021/12/08 10:59:26;;;;;;;1.20;1.20;;;16.80;67.30;;;;;;5028621;28;45994;-70
2021/12/08 11:01:59;;;;;;;1.00;1.00;;;16.80;66.90;;;;;;5028701;28;45205;-69
2021/12/08 11:04:30;;;;;;;1.20;1.20;;;16.80;66.90;;;;;;5046532;28;44053;-70
2021/12/08 11:07:05;;;;;;;1.20;1.20;;;16.70;67.00;;;;;;5047700;28;43893;-69
2021/12/08 11:09:41;;;;;;;1.20;1.20;;;16.70;67.30;;;;;;5047026;28;43781;-69
2021/12/08 11:12:15;;;;;;;1.27;1.27;;;16.60;67.40;;;;;;5046965;28;43916;-69
2021/12/08 11:14:44;;;;;;;1.10;1.10;;;16.60;67.70;;;;;;5028708;28;43995;-70
2021/12/08 11:17:25;;;;;;;1.00;1.00;;;16.50;67.70;;;;;;5047035;28;43849;-69
2021/12/08 11:20:15;;;;;;;1.00;1.00;;;16.50;67.90;;;;;;5028426;28;46704;-70
2021/12/08 11:22:44;;;;;;;1.10;1.10;;;16.50;67.90;;;;;;5027710;28;44324;-69
2021/12/08 11:25:22;;;;;;;1.10;1.10;;;16.50;68.00;;;;;;5028391;28;44008;-70
2021/12/08 11:27:50;;;;;;;1.10;1.10;;;16.50;68.10;;;;;;5028687;28;43960;-70
2021/12/08 11:30:25;;;;;;;1.00;1.00;;;16.40;68.10;;;;;;5046473;28;44001;-69
2021/12/08 11:33:09;;;;;;;1.60;1.30;;;16.50;68.20;;;;;;5047035;28;44028;-69
2021/12/08 11:35:37;;;;;;;1.00;1.00;;;16.60;67.80;;;;;;5040135;28;43893;-70
2021/12/08 11:38:05;;;;;;;1.20;1.10;;;16.60;67.40;;;;;;5040202;28;44223;-69
2021/12/08 11:40:35;;;;;;;1.00;1.00;;;16.60;67.40;;;;;;5040292;28;43896;-69
2021/12/08 11:43:03;;;;;;;0.90;0.90;;;16.60;67.60;;;;;;5046339;28;43973;-69
2021/12/08 11:45:37;;;;;;;1.07;1.07;;;16.60;67.60;;;;;;5046675;28;43423;-69
2021/12/08 11:48:20;;;;;;;1.33;1.23;;;16.50;67.70;;;;;;5046897;28;43957;-69
2021/12/08 11:50:48;;;;;;;1.10;1.10;;;16.50;67.90;;;;;;5046360;28;43945;-69
2021/12/08 11:53:21;;;;;;;1.00;1.00;;;16.50;68.00;;;;;;5046177;28;43848;-69
2021/12/08 11:55:50;;;;;;;0.90;0.90;;;16.50;68.10;;;;;;5046444;28;44200;-69
2021/12/08 11:58:18;;;;;;;1.30;1.30;;;16.40;68.00;;;;;;5046652;28;43973;-69
2021/12/08 12:00:50;;;;;;;1.00;1.00;;;16.40;68.10;;;;;;5046102;28;44068;-69
2021/12/08 12:03:19;;;;;;;1.20;1.20;;;16.40;68.20;;;;;;5046330;28;43793;-69
2021/12/08 12:05:48;;;;;;;1.00;1.00;;;16.40;68.30;;;;;;5045513;28;43866;-70
2021/12/08 12:08:17;;;;;;;1.10;1.10;;;16.40;69.10;;;;;;5046306;28;44160;-69
2021/12/08 12:10:46;;;;;;;1.40;1.40;;;16.40;68.50;;;;;;5045962;28;44006;-69
2021/12/08 12:13:16;;;;;;;1.47;1.37;;;16.50;68.40;;;;;;5045742;28;44030;-69
2021/12/08 12:15:46;;;;;;;1.00;1.00;;;16.60;68.00;;;;;;5045942;28;43889;-70
2021/12/08 12:18:15;;;;;;;1.10;1.00;;;16.70;67.50;;;;;;5046431;28;43992;-70
2021/12/08 12:20:43;;;;;;;1.10;1.10;;;16.80;67.10;;;;;;5045592;28;43891;-70
2021/12/08 12:23:27;;;;;;;1.10;1.10;;;16.90;67.00;;;;;;5027646;28;45288;-70
2021/12/08 12:26:03;;;;;;;1.13;1.13;;;16.80;66.80;;;;;;5046115;28;43433;-69
2021/12/08 12:28:43;;;;;;;1.27;1.27;;;16.70;67.00;;;;;;5046408;28;43972;-69
2021/12/08 12:31:19;;;;;;;1.00;1.00;;;16.70;67.20;;;;;;5045808;28;43932;-69
2021/12/08 12:33:49;;;;;;;1.20;1.20;;;16.60;67.40;;;;;;5045930;28;43968;-70
2021/12/08 12:36:22;;;;;;;1.27;1.27;;;16.60;67.60;;;;;;5049247;28;44027;-69
2021/12/08 12:38:50;;;;;;;1.30;1.30;;;16.50;67.70;;;;;;5049637;28;43986;-69
2021/12/08 12:41:29;;;;;;;1.10;1.10;;;16.50;67.80;;;;;;5030953;28;46068;-70
2021/12/08 12:44:19;;;;;;;1.20;1.20;;;16.50;67.90;;;;;;5049063;28;44040;-70
2021/12/08 12:47:27;;;;;;;1.13;1.13;;;16.50;68.00;;;;;;5049347;28;44070;-69
2021/12/08 12:50:13;;;;;;;1.30;1.20;;;16.40;68.00;;;;;;5049799;28;44037;-70
2021/12/08 12:52:41;;;;;;;1.20;1.20;;;16.50;68.20;;;;;;5049176;28;43932;-69
2021/12/08 12:55:11;;;;;;;1.10;1.10;;;16.60;67.90;;;;;;5048933;28;43838;-70
2021/12/08 12:58:15;;;;;;;1.10;1.10;;;16.60;67.50;;;;;;5048932;28;43980;-69
2021/12/08 13:01:00;;;;;;;1.33;1.23;;;16.60;67.40;;;;;;4968182;28;43595;-69
2021/12/08 13:03:50;;;;;;;1.20;1.20;;;16.60;67.50;;;;;;5042649;28;44166;-69
2021/12/08 13:06:45;;;;;;;1.20;1.20;;;16.60;67.60;;;;;;5040636;28;43490;-69
2021/12/08 13:09:46;;;;;;;1.20;1.20;;;16.50;67.70;;;;;;5049012;28;43884;-68
2021/12/08 13:12:20;;;;;;;1.10;1.10;;;16.50;67.90;;;;;;5049034;28;43988;-70
2021/12/08 13:14:50;;;;;;;1.10;1.10;;;16.50;68.00;;;;;;5048937;28;44277;-69
2021/12/08 13:17:24;;;;;;;1.13;1.13;;;16.40;68.10;;;;;;5048444;28;43953;-69
2021/12/08 13:19:54;;;;;;;1.00;1.00;;;16.40;68.20;;;;;;5048915;28;43813;-70
2021/12/08 13:22:42;;;;;;;1.00;1.00;;;16.40;68.20;;;;;;5030781;28;43985;-70
2021/12/08 13:25:24;;;;;;;1.27;1.27;;;16.40;68.30;;;;;;5048530;28;44007;-69
2021/12/08 13:27:53;;;;;;;1.13;1.07;;;16.40;68.30;;;;;;5048628;28;43969;-70
2021/12/08 13:30:21;;;;;;;1.13;1.10;;;16.40;68.50;;;;;;5048427;28;43865;-69
2021/12/08 13:32:57;;;;;;;1.00;1.00;;;16.50;68.40;;;;;;5048928;28;43536;-69
2021/12/08 13:35:34;;;;;;;1.07;1.07;;;16.60;68.10;;;;;;5048449;28;43994;-70
2021/12/08 13:38:03;;;;;;;1.30;1.30;;;16.70;67.50;;;;;;5030484;28;43447;-69
2021/12/08 13:40:43;;;;;;;1.00;1.00;;;16.80;67.20;;;;;;5042129;28;43910;-69
2021/12/08 13:43:11;;;;;;;1.00;1.00;;;16.80;66.90;;;;;;5048744;28;44252;-70